Alma, Missouri
Current Conditions -  °F | °C
As of 4:15 PM on Saturday 22 Nov 2014 (Local Time) from KMHL Reporting Station
Broken Clouds Broken Clouds  
Wind Chill: 63°   Ceiling: 2800
Heat Index: 63°   Visibility: 10mi
Dew Point: 54°   Wind: 17mph
Humidity: 72%   Direction: 190°S
Pressure: 29.86"   Gusts: 22mph
Location:  39.1°N, 93.55°W
Report Text: KMHL 222215Z AUTO 19015G19KT 10SM BKN028 BKN060 17/12 A2986 RMK AO2
Loading
Personal Weather Stations






























Interactive Weather Map New forecast layout! Learn more

10-Day Weather Forecast

Advertisements
Track Severe Weather on mobile